Time;durP1;ratioP1;P1;durP2;ratioP2;P2;SDS_P1;SDS_P2;PMS_P1;PMS_P2;Temp;Humidity;BMP_temperature;BMP_pressure;BME280_temperature;BME280_humidity;BME280_pressure;Samples;Min_cycle;Max_cycle;Signal;HPM_P1;HPM_P2
2022/06/24 00:02:00;;;;;;;3.17;1.70;;;23.60;78.40;;;-142.21;100.00;112049.66;5073039;28;20216;-77
2022/06/24 00:04:30;;;;;;;3.30;1.57;;;23.60;79.00;;;-142.21;100.00;112049.66;5072718;28;20184;-78
2022/06/24 00:06:59;;;;;;;3.80;1.77;;;23.70;78.60;;;-142.21;100.00;112049.66;5073184;28;20212;-78
2022/06/24 00:09:34;;;;;;;3.13;1.30;;;23.70;78.60;;;-142.21;100.00;112049.66;5032528;28;20212;-79
2022/06/24 00:12:04;;;;;;;3.87;1.60;;;23.70;78.90;;;-142.21;100.00;112049.66;5033748;28;20201;-78
2022/06/24 00:14:31;;;;;;;4.57;1.60;;;23.70;78.80;;;-142.21;100.00;112049.66;5032872;28;20222;-76
2022/06/24 00:17:01;;;;;;;2.63;1.70;;;23.80;78.50;;;-142.21;100.00;112049.66;5046174;28;20223;-78
2022/06/24 00:19:31;;;;;;;2.17;1.33;;;23.80;78.10;;;-142.21;100.00;112049.66;5088293;28;20287;-78
2022/06/24 00:22:09;;;;;;;2.73;1.23;;;23.90;78.10;;;-142.21;100.00;112049.66;5073310;28;20215;-78
2022/06/24 00:24:41;;;;;;;2.13;1.33;;;23.90;78.60;;;-142.21;100.00;112049.66;5072527;28;20185;-78
2022/06/24 00:27:20;;;;;;;1.30;1.20;;;23.90;78.00;;;-142.21;100.00;112049.66;5073326;28;20543;-78
2022/06/24 00:29:48;;;;;;;4.97;1.30;;;23.90;79.10;;;-142.21;100.00;112049.66;5058053;28;20237;-78
2022/06/24 00:32:15;;;;;;;8.67;1.40;;;23.80;78.20;;;-142.21;100.00;112049.66;5052608;28;20208;-79
2022/06/24 00:34:43;;;;;;;1.97;1.10;;;23.80;77.80;;;-142.21;100.00;112049.66;5052819;28;20240;-78
2022/06/24 00:37:25;;;;;;;4.10;1.40;;;23.80;78.00;;;-142.21;100.00;112049.66;5053308;28;20641;-78
2022/06/24 00:39:57;;;;;;;3.17;1.47;;;23.80;79.50;;;-142.21;100.00;112049.66;5060095;28;20205;-77
2022/06/24 00:42:25;;;;;;;3.33;1.70;;;23.80;78.40;;;-142.21;100.00;112049.66;5063609;28;20197;-78
2022/06/24 00:45:11;;;;;;;5.00;1.40;;;23.80;78.50;;;-142.21;100.00;112049.66;5072447;28;20203;-79
2022/06/24 00:47:40;;;;;;;3.23;1.30;;;23.80;78.80;;;-142.21;100.00;112049.66;5073064;28;20192;-77
2022/06/24 00:50:25;;;;;;;4.93;1.77;;;23.80;78.50;;;-142.21;100.00;112049.66;5061926;28;20262;-79
2022/06/24 00:52:55;;;;;;;5.17;1.50;;;23.80;78.90;;;-142.21;100.00;112049.66;5052788;28;20277;-77
2022/06/24 00:55:28;;;;;;;1.57;1.10;;;23.80;78.30;;;-142.21;100.00;112049.66;5051805;28;20691;-78
2022/06/24 00:57:57;;;;;;;2.20;1.30;;;23.80;78.50;;;-142.21;100.00;112049.66;5056824;28;20191;-76
2022/06/24 01:00:26;;;;;;;1.97;1.30;;;23.80;78.30;;;-142.21;100.00;112049.66;5069342;28;20684;-78
2022/06/24 01:02:59;;;;;;;2.97;1.50;;;23.80;78.70;;;-142.21;100.00;112049.66;5052624;28;20213;-78
2022/06/24 01:05:27;;;;;;;3.43;1.37;;;23.80;79.70;;;-142.21;100.00;112049.66;5053953;28;20197;-78
2022/06/24 01:07:54;;;;;;;3.23;1.40;;;23.80;78.60;;;-142.21;100.00;112049.66;5072521;28;20205;-78
2022/06/24 01:10:23;;;;;;;3.23;1.27;;;23.80;78.40;;;-142.21;100.00;112049.66;5072208;28;20218;-77
2022/06/24 01:12:51;;;;;;;2.07;1.40;;;23.80;78.20;;;-142.21;100.00;112049.66;5072712;28;20204;-78
2022/06/24 01:15:18;;;;;;;1.50;1.00;;;23.80;78.20;;;-142.21;100.00;112049.66;5071962;28;20244;-77
2022/06/24 01:17:46;;;;;;;2.27;1.30;;;23.80;78.50;;;-142.21;100.00;112049.66;5072131;28;20712;-79
2022/06/24 01:20:13;;;;;;;2.20;1.30;;;23.80;78.50;;;-142.21;100.00;112049.66;5072730;28;20568;-80
2022/06/24 01:22:42;;;;;;;3.03;1.30;;;23.80;78.50;;;-142.21;100.00;112049.66;5075081;28;20234;-79
2022/06/24 01:25:11;;;;;;;2.90;1.23;;;23.80;78.70;;;-142.21;100.00;112049.66;5057624;28;20205;-77
2022/06/24 01:27:39;;;;;;;3.37;1.50;;;23.80;78.90;;;-142.21;100.00;112049.66;5062501;28;20209;-77
2022/06/24 01:30:09;;;;;;;4.27;1.60;;;23.80;78.90;;;-142.21;100.00;112049.66;5056250;28;20225;-78
2022/06/24 01:32:39;;;;;;;2.13;1.37;;;23.70;79.10;;;-142.21;100.00;112049.66;5058136;28;20197;-80
2022/06/24 01:35:08;;;;;;;2.63;1.10;;;23.70;78.90;;;-142.21;100.00;112049.66;5076343;28;20229;-78
2022/06/24 01:37:35;;;;;;;2.30;1.40;;;23.50;78.80;;;-142.21;100.00;112049.66;5073624;28;20662;-77
2022/06/24 01:40:05;;;;;;;2.00;1.33;;;23.50;79.70;;;-142.21;100.00;112049.66;5056601;28;20553;-77
2022/06/24 01:42:33;;;;;;;3.50;1.60;;;23.50;80.10;;;-142.21;100.00;112049.66;5055386;28;20210;-78
2022/06/24 01:45:00;;;;;;;3.50;1.57;;;23.60;79.70;;;-142.21;100.00;112049.66;5056402;28;20210;-78
2022/06/24 01:47:27;;;;;;;2.63;1.40;;;23.60;80.60;;;-142.21;100.00;112049.66;5055814;28;20541;-79
2022/06/24 01:49:56;;;;;;;2.70;1.60;;;23.60;79.40;;;-142.21;100.00;112049.66;5076015;28;20301;-77
2022/06/24 01:52:23;;;;;;;2.97;1.30;;;23.70;79.60;;;-142.21;100.00;112049.66;5075354;28;20211;-78
2022/06/24 01:54:50;;;;;;;2.67;1.50;;;23.70;79.40;;;-142.21;100.00;112049.66;5075899;28;20583;-77
2022/06/24 01:57:19;;;;;;;3.47;1.47;;;23.70;80.40;;;-142.21;100.00;112049.66;5075786;28;20211;-77
2022/06/24 01:59:46;;;;;;;2.67;1.30;;;23.60;79.70;;;-142.21;100.00;112049.66;5076348;28;20571;-78
2022/06/24 02:02:13;;;;;;;2.30;1.70;;;23.60;79.40;;;-142.21;100.00;112049.66;5075681;28;20211;-75
2022/06/24 02:04:43;;;;;;;3.00;1.70;;;23.70;79.40;;;-142.21;100.00;112049.66;5074800;28;20208;-77
2022/06/24 02:07:10;;;;;;;2.23;1.50;;;23.70;79.50;;;-142.21;100.00;112049.66;5068337;28;20657;-78
2022/06/24 02:13:26;;;;;;;1.83;1.50;;;23.70;79.60;;;-142.21;100.00;112049.66;5055190;28;20294;-77
2022/06/24 02:15:10;;;;;;;2.53;1.30;;;23.60;79.30;;;-142.21;100.00;112049.66;5035476;28;20237;-77
2022/06/24 02:17:38;;;;;;;1.83;1.27;;;23.60;79.30;;;-142.21;100.00;112049.66;5038614;28;20223;-78
2022/06/24 02:20:06;;;;;;;3.10;1.90;;;23.60;79.40;;;-142.21;100.00;112049.66;5055773;28;20314;-77
2022/06/24 02:22:34;;;;;;;2.27;1.60;;;23.60;79.30;;;-142.21;100.00;112049.66;5055148;28;20300;-78
2022/06/24 02:25:01;;;;;;;3.20;1.50;;;23.60;79.30;;;-142.21;100.00;112049.66;5057193;28;20194;-76
2022/06/24 02:27:30;;;;;;;4.00;1.57;;;23.50;79.10;;;-142.21;100.00;112049.66;5056190;28;20301;-78
2022/06/24 02:29:57;;;;;;;3.10;1.43;;;23.50;79.20;;;-142.21;100.00;112049.66;5075066;28;20233;-76
2022/06/24 02:32:24;;;;;;;2.17;1.33;;;23.50;79.30;;;-142.21;100.00;112049.66;5074451;28;20205;-78
2022/06/24 02:34:51;;;;;;;3.50;1.60;;;23.50;79.40;;;-142.21;100.00;112049.66;5071583;28;20224;-77
2022/06/24 02:37:18;;;;;;;2.47;1.30;;;23.50;79.50;;;-142.21;100.00;112049.66;5055481;28;20214;-76
2022/06/24 02:39:45;;;;;;;2.70;1.40;;;23.50;80.00;;;-142.21;100.00;112049.66;5055168;28;20560;-76
2022/06/24 02:42:12;;;;;;;2.57;1.70;;;23.40;80.00;;;-142.21;100.00;112049.66;5047216;28;20712;-77
2022/06/24 02:44:42;;;;;;;3.90;1.60;;;23.30;79.80;;;-142.21;100.00;112049.66;5074950;28;20213;-77
2022/06/24 02:47:09;;;;;;;2.37;1.70;;;23.30;80.10;;;-142.21;100.00;112049.66;5076974;28;20251;-78
2022/06/24 02:49:36;;;;;;;2.57;1.40;;;23.40;80.00;;;-142.21;100.00;112049.66;5074793;28;20234;-78
2022/06/24 02:52:04;;;;;;;2.27;1.37;;;23.30;79.80;;;-142.21;100.00;112049.66;5067167;28;20213;-77
2022/06/24 02:54:31;;;;;;;2.53;1.27;;;23.30;79.80;;;-142.21;100.00;112049.66;5057258;28;20236;-78
2022/06/24 02:56:58;;;;;;;2.47;1.53;;;23.30;79.80;;;-142.21;100.00;112049.66;5056020;28;20212;-77
2022/06/24 02:59:25;;;;;;;2.17;1.83;;;23.30;79.80;;;-142.21;100.00;112049.66;5064524;28;20202;-76
2022/06/24 03:01:54;;;;;;;4.67;1.40;;;23.20;79.70;;;-142.21;100.00;112049.66;5066036;28;20646;-76
2022/06/24 03:04:21;;;;;;;3.07;1.80;;;23.30;79.70;;;-142.21;100.00;112049.66;5059226;28;20203;-76
2022/06/24 03:06:48;;;;;;;2.73;1.50;;;23.30;79.70;;;-142.21;100.00;112049.66;5054676;28;20646;-77
2022/06/24 03:09:15;;;;;;;1.93;1.47;;;23.20;79.70;;;-142.21;100.00;112049.66;5065098;28;20554;-77
2022/06/24 03:11:42;;;;;;;1.80;1.30;;;23.10;79.60;;;-142.21;100.00;112049.66;5060189;28;20209;-77
2022/06/24 03:14:09;;;;;;;2.67;1.50;;;23.10;79.60;;;-142.21;100.00;112049.66;5074310;28;20300;-79
2022/06/24 03:16:37;;;;;;;2.00;1.53;;;23.10;80.10;;;-142.21;100.00;112049.66;5074027;28;20209;-78
2022/06/24 03:19:05;;;;;;;1.47;1.37;;;22.90;80.30;;;-142.21;100.00;112049.66;5063531;28;20197;-77
2022/06/24 03:21:32;;;;;;;1.83;1.67;;;22.80;80.10;;;-142.21;100.00;112049.66;5053806;28;20229;-78
2022/06/24 03:23:59;;;;;;;1.50;1.40;;;22.80;80.10;;;-142.21;100.00;112049.66;5054165;28;20217;-77
2022/06/24 03:26:26;;;;;;;1.27;1.17;;;22.80;80.00;;;-142.21;100.00;112049.66;5053552;28;20198;-77
2022/06/24 03:28:54;;;;;;;4.30;1.70;;;22.80;80.00;;;-142.21;100.00;112049.66;5054157;28;20205;-77
2022/06/24 03:31:21;;;;;;;2.90;1.80;;;22.80;80.00;;;-142.21;100.00;112049.66;5053712;28;20248;-78
2022/06/24 03:33:48;;;;;;;3.00;1.80;;;22.70;80.00;;;-142.21;100.00;112049.66;5053011;28;20327;-79
2022/06/24 03:36:16;;;;;;;2.27;1.93;;;22.70;79.90;;;-142.21;100.00;112049.66;5053620;28;20278;-77
2022/06/24 03:38:43;;;;;;;3.73;1.53;;;22.70;79.80;;;-142.21;100.00;112049.66;5053034;28;20285;-77
2022/06/24 03:41:11;;;;;;;3.60;2.00;;;22.70;79.70;;;-142.21;100.00;112049.66;5053934;28;20543;-76
2022/06/24 03:43:38;;;;;;;2.87;1.70;;;22.70;79.70;;;-142.21;100.00;112049.66;5052755;28;20704;-77
2022/06/24 03:46:05;;;;;;;2.10;1.73;;;22.70;79.70;;;-142.21;100.00;112049.66;5052931;28;20199;-78
2022/06/24 03:48:32;;;;;;;3.93;1.80;;;22.60;79.80;;;-142.21;100.00;112049.66;5052995;28;20218;-78
2022/06/24 03:50:59;;;;;;;3.63;1.70;;;22.50;79.90;;;-142.21;100.00;112049.66;5053777;28;20572;-77
2022/06/24 03:53:28;;;;;;;2.80;1.90;;;22.30;80.20;;;-142.21;100.00;112049.66;5053194;28;20301;-77
2022/06/24 03:55:55;;;;;;;2.23;1.90;;;22.30;80.50;;;-142.21;100.00;112049.66;5053463;28;20280;-77
2022/06/24 03:58:22;;;;;;;3.83;1.80;;;22.20;81.20;;;-142.21;100.00;112049.66;5053173;28;20228;-78
2022/06/24 04:00:49;;;;;;;2.67;1.87;;;22.10;81.60;;;-142.21;100.00;112049.66;5052187;28;20241;-78
2022/06/24 04:03:17;;;;;;;3.17;2.10;;;22.20;81.70;;;-142.21;100.00;112049.66;5053591;28;20209;-78
2022/06/24 04:05:44;;;;;;;3.33;1.90;;;22.20;81.30;;;-142.21;100.00;112049.66;5052442;28;20240;-79
2022/06/24 04:08:11;;;;;;;5.90;2.00;;;22.30;81.10;;;-142.21;100.00;112049.66;5053520;28;20209;-78
2022/06/24 04:10:40;;;;;;;4.83;2.40;;;22.40;80.70;;;-142.21;100.00;112049.66;5053165;28;20212;-78
2022/06/24 04:13:07;;;;;;;3.67;2.23;;;22.40;80.60;;;-142.21;100.00;112049.66;5053254;28;20214;-79
2022/06/24 04:15:34;;;;;;;2.90;1.60;;;22.40;80.50;;;-142.21;100.00;112049.66;5052662;28;20255;-77
2022/06/24 04:18:04;;;;;;;2.17;1.80;;;22.40;80.70;;;-142.21;100.00;112049.66;5053253;28;20637;-78
2022/06/24 04:20:31;;;;;;;4.03;1.80;;;22.50;81.00;;;-142.21;100.00;112049.66;5052409;28;20206;-78
2022/06/24 04:22:58;;;;;;;2.00;1.43;;;22.50;80.60;;;-142.21;100.00;112049.66;5053481;28;20296;-78
2022/06/24 04:25:25;;;;;;;2.10;1.90;;;22.60;80.70;;;-142.21;100.00;112049.66;5052760;28;20292;-77
2022/06/24 04:27:54;;;;;;;3.37;2.00;;;22.60;80.30;;;-142.21;100.00;112049.66;5067230;28;20211;-78
2022/06/24 04:30:22;;;;;;;2.77;1.97;;;22.70;81.50;;;-142.21;100.00;112049.66;5072814;28;20264;-77
2022/06/24 04:32:49;;;;;;;2.40;1.80;;;22.70;80.50;;;-142.21;100.00;112049.66;5072382;28;20204;-78
2022/06/24 04:35:16;;;;;;;3.63;2.17;;;22.80;81.10;;;-142.21;100.00;112049.66;5072741;28;20264;-77
2022/06/24 04:37:43;;;;;;;2.10;1.63;;;22.80;80.40;;;-142.21;100.00;112049.66;5072339;28;20212;-79
2022/06/24 04:40:14;;;;;;;2.07;1.60;;;22.90;80.40;;;-142.21;100.00;112049.66;5073161;28;20236;-76
2022/06/24 04:42:41;;;;;;;3.77;1.97;;;22.90;80.70;;;-142.21;100.00;112049.66;5032501;28;20198;-77
2022/06/24 04:45:11;;;;;;;1.93;1.70;;;23.00;80.70;;;-142.21;100.00;112049.66;5033287;28;20293;-78
2022/06/24 04:47:38;;;;;;;2.17;1.87;;;23.10;80.80;;;-142.21;100.00;112049.66;5032320;28;20289;-79
2022/06/24 04:50:07;;;;;;;2.77;1.67;;;23.10;80.80;;;-142.21;100.00;112049.66;5032725;28;20289;-79
2022/06/24 04:52:34;;;;;;;3.57;1.90;;;23.10;81.30;;;-142.21;100.00;112049.66;5032104;28;20293;-79
2022/06/24 04:55:03;;;;;;;3.17;2.10;;;23.20;81.00;;;-142.21;100.00;112049.66;5055886;28;20255;-78
2022/06/24 04:57:30;;;;;;;3.20;1.87;;;23.20;80.80;;;-142.21;100.00;112049.66;5051251;28;20607;-77
2022/06/24 04:59:59;;;;;;;2.80;2.03;;;23.20;81.10;;;-142.21;100.00;112049.66;5053110;28;20233;-77
2022/06/24 05:02:28;;;;;;;4.43;2.33;;;23.20;81.30;;;-142.21;100.00;112049.66;5060364;28;20606;-78
2022/06/24 05:04:55;;;;;;;5.07;2.50;;;23.10;81.60;;;-142.21;100.00;112049.66;5072265;28;20624;-78
2022/06/24 05:07:22;;;;;;;6.37;2.60;;;23.10;81.50;;;-142.21;100.00;112049.66;5058394;28;20215;-78
2022/06/24 05:09:49;;;;;;;3.97;2.80;;;23.10;81.50;;;-142.21;100.00;112049.66;5051783;28;20277;-78
2022/06/24 05:12:16;;;;;;;5.03;2.43;;;23.10;81.20;;;-142.21;100.00;112049.66;5052749;28;20265;-77
2022/06/24 05:14:43;;;;;;;7.13;2.53;;;23.10;81.00;;;-142.21;100.00;112049.66;5051926;28;20203;-76
2022/06/24 05:17:11;;;;;;;7.73;2.93;;;23.30;81.60;;;-142.21;100.00;112049.66;5052311;28;20282;-78
2022/06/24 05:19:39;;;;;;;4.10;2.57;;;23.20;80.70;;;-142.21;100.00;112049.66;5051482;28;20206;-77
2022/06/24 05:22:06;;;;;;;2.63;2.40;;;23.30;81.00;;;-142.21;100.00;112049.66;5052420;28;20261;-79
2022/06/24 05:24:34;;;;;;;4.13;3.07;;;23.30;80.70;;;-142.21;100.00;112049.66;5051710;28;20308;-79
2022/06/24 05:27:01;;;;;;;9.17;2.90;;;23.30;80.60;;;-142.21;100.00;112049.66;5052616;28;20537;-78
2022/06/24 05:29:28;;;;;;;6.17;3.47;;;23.30;81.70;;;-142.21;100.00;112049.66;5051868;28;20247;-78
2022/06/24 05:31:55;;;;;;;5.13;2.73;;;23.40;81.40;;;-142.21;100.00;112049.66;5052386;28;20282;-78
2022/06/24 05:34:23;;;;;;;5.03;2.80;;;23.40;80.30;;;-142.21;100.00;112049.66;5053208;28;20287;-78
2022/06/24 05:36:51;;;;;;;5.87;2.77;;;23.40;80.40;;;-142.21;100.00;112049.66;5069922;28;20226;-78
2022/06/24 05:39:18;;;;;;;4.50;2.63;;;23.50;80.40;;;-142.21;100.00;112049.66;5070259;28;20235;-78
2022/06/24 05:41:46;;;;;;;3.50;2.93;;;23.50;79.90;;;-142.21;100.00;112049.66;5064276;28;20201;-77
2022/06/24 05:44:13;;;;;;;4.33;2.80;;;23.50;79.90;;;-142.21;100.00;112049.66;5072450;28;20212;-78
2022/06/24 05:46:41;;;;;;;3.87;2.80;;;23.70;80.60;;;-142.21;100.00;112049.66;5071464;28;20584;-75
2022/06/24 05:49:08;;;;;;;5.00;2.93;;;23.70;80.20;;;-142.21;100.00;112049.66;5072071;28;20218;-78
2022/06/24 05:51:36;;;;;;;5.10;3.00;;;23.60;79.00;;;-142.21;100.00;112049.66;5067667;28;20254;-75
2022/06/24 05:56:59;;;;;;;5.33;2.93;;;23.40;79.70;;;-142.21;100.00;112049.66;5058589;28;20220;-79
2022/06/24 05:59:26;;;;;;;4.50;3.53;;;23.40;80.40;;;-142.21;100.00;112049.66;5071924;28;20287;-78
2022/06/24 06:01:55;;;;;;;6.03;3.07;;;23.40;79.80;;;-142.21;100.00;112049.66;5065945;28;20234;-78
2022/06/24 06:04:23;;;;;;;5.30;3.40;;;23.30;80.40;;;-142.21;100.00;112049.66;5051542;28;20709;-77
2022/06/24 06:06:51;;;;;;;6.67;3.63;;;23.30;80.50;;;-142.21;100.00;112049.66;5051238;28;20211;-78
2022/06/24 06:09:20;;;;;;;3.67;3.13;;;23.50;81.40;;;-142.21;100.00;112049.66;5055337;28;20299;-77
2022/06/24 06:11:47;;;;;;;5.43;3.13;;;23.60;80.50;;;-142.21;100.00;112049.66;5055778;28;20283;-77
2022/06/24 06:14:15;;;;;;;8.93;3.73;;;23.70;80.30;;;-142.21;100.00;112049.66;5058994;28;20213;-76
2022/06/24 06:16:42;;;;;;;6.53;3.07;;;23.80;80.00;;;-142.21;100.00;112049.66;5057852;28;20259;-79
2022/06/24 06:19:09;;;;;;;4.03;2.87;;;23.90;80.40;;;-142.21;100.00;112049.66;5058752;28;20207;-77
2022/06/24 06:21:37;;;;;;;6.37;2.83;;;24.10;79.90;;;-142.21;100.00;112049.66;5081942;28;20209;-79
2022/06/24 06:24:05;;;;;;;7.30;3.07;;;24.20;79.60;;;-142.21;100.00;112049.66;5078765;28;20568;-78
2022/06/24 06:26:34;;;;;;;4.50;2.70;;;24.30;80.10;;;-142.21;100.00;112049.66;5076225;28;20207;-80
2022/06/24 06:29:01;;;;;;;8.57;3.13;;;24.50;79.90;;;-142.21;100.00;112049.66;5075666;28;20251;-79
2022/06/24 06:31:29;;;;;;;5.53;2.90;;;24.40;77.70;;;-142.21;100.00;112049.66;5075129;28;20218;-79
2022/06/24 06:33:56;;;;;;;3.33;2.50;;;24.40;77.30;;;-142.21;100.00;112049.66;5074861;28;20626;-77
2022/06/24 06:36:23;;;;;;;4.73;2.80;;;24.30;77.40;;;-142.21;100.00;112049.66;5075044;28;20312;-78
2022/06/24 06:38:52;;;;;;;4.07;2.60;;;24.40;77.50;;;-142.21;100.00;112049.66;5074768;28;20235;-78
2022/06/24 06:41:19;;;;;;;5.30;3.03;;;24.30;78.10;;;-142.21;100.00;112049.66;5075254;28;20240;-77
2022/06/24 06:43:48;;;;;;;3.87;2.80;;;24.30;77.00;;;-142.21;100.00;112049.66;5074833;28;20240;-78
2022/06/24 06:46:16;;;;;;;4.53;3.23;;;24.20;77.20;;;-142.21;100.00;112049.66;5074754;28;20247;-79
2022/06/24 06:48:43;;;;;;;4.13;3.00;;;24.20;78.00;;;-142.21;100.00;112049.66;5074597;28;20601;-76
2022/06/24 06:51:10;;;;;;;4.97;2.67;;;24.10;76.90;;;-142.21;100.00;112049.66;5075058;28;20205;-79
2022/06/24 06:53:38;;;;;;;3.57;2.70;;;24.10;77.00;;;-142.21;100.00;112049.66;5074495;28;20664;-79
2022/06/24 06:56:05;;;;;;;8.00;2.70;;;24.10;77.50;;;-142.21;100.00;112049.66;5073809;28;20259;-77
2022/06/24 06:58:33;;;;;;;2.50;2.30;;;24.20;76.70;;;-142.21;100.00;112049.66;5074792;28;20724;-79
2022/06/24 07:01:01;;;;;;;3.50;2.57;;;24.20;76.10;;;-142.21;100.00;112049.66;5074863;28;20240;-79
2022/06/24 07:03:28;;;;;;;6.50;2.80;;;24.30;76.20;;;-142.21;100.00;112049.66;5074466;28;20220;-78
2022/06/24 07:05:55;;;;;;;4.00;2.43;;;24.40;76.00;;;-142.21;100.00;112049.66;5074219;28;20255;-78
2022/06/24 07:08:23;;;;;;;6.23;3.10;;;24.40;74.90;;;-142.21;100.00;112049.66;5074279;28;20266;-78
2022/06/24 07:10:50;;;;;;;6.33;2.97;;;24.30;75.30;;;-142.21;100.00;112049.66;5073435;28;20205;-79
2022/06/24 07:13:19;;;;;;;4.43;2.70;;;24.30;75.20;;;-142.21;100.00;112049.66;5074221;28;20292;-79
2022/06/24 07:15:46;;;;;;;6.47;2.83;;;24.30;75.20;;;-142.21;100.00;112049.66;5073284;28;20236;-79
2022/06/24 07:18:16;;;;;;;5.63;3.00;;;24.40;75.10;;;-142.21;100.00;112049.66;5074059;28;20684;-78
2022/06/24 07:20:44;;;;;;;7.57;2.83;;;24.40;74.70;;;-142.21;100.00;112049.66;5072823;28;20263;-78
2022/06/24 07:23:12;;;;;;;4.70;2.50;;;24.30;75.10;;;-142.21;100.00;112049.66;5074209;28;20798;-79
2022/06/24 07:25:39;;;;;;;4.17;2.97;;;24.30;75.30;;;-142.21;100.00;112049.66;5073805;28;20296;-78
2022/06/24 07:28:07;;;;;;;3.03;2.60;;;24.40;74.80;;;-142.21;100.00;112049.66;5074207;28;20254;-78
2022/06/24 07:30:35;;;;;;;4.17;2.57;;;24.50;75.00;;;-142.21;100.00;112049.66;5073416;28;20241;-78
2022/06/24 07:33:02;;;;;;;3.30;2.50;;;24.40;73.90;;;-142.21;100.00;112049.66;5073974;28;20677;-77
2022/06/24 07:35:31;;;;;;;4.00;2.87;;;24.40;73.60;;;-142.21;100.00;112049.66;5073742;28;20212;-78
2022/06/24 07:37:58;;;;;;;3.90;2.57;;;24.40;73.70;;;-142.21;100.00;112049.66;5073533;28;20240;-80
2022/06/24 07:40:26;;;;;;;6.00;3.07;;;24.50;73.50;;;-142.21;100.00;112049.66;5073676;28;20250;-75
2022/06/24 07:42:53;;;;;;;3.60;2.80;;;24.60;73.40;;;-142.21;100.00;112049.66;5072868;28;20250;-76
2022/06/24 07:45:20;;;;;;;5.63;2.60;;;24.60;73.50;;;-142.21;100.00;112049.66;5073196;28;20219;-78
2022/06/24 07:47:47;;;;;;;5.40;2.40;;;24.70;73.00;;;-142.21;100.00;112049.66;5073378;28;20237;-78
2022/06/24 07:50:15;;;;;;;5.20;2.70;;;24.80;72.30;;;-142.21;100.00;112049.66;5073583;28;20292;-78
2022/06/24 07:52:43;;;;;;;3.20;2.20;;;24.90;72.70;;;-142.21;100.00;112049.66;5073181;28;20258;-77
2022/06/24 07:57:56;;;;;;;2.80;1.93;;;25.10;72.00;;;-142.21;100.00;112049.66;5072916;28;20189;-78
2022/06/24 08:00:23;;;;;;;4.67;2.30;;;25.20;70.20;;;-142.21;100.00;112049.66;5073486;28;20235;-76
2022/06/24 08:02:50;;;;;;;2.87;2.10;;;25.20;71.30;;;-142.21;100.00;112049.66;5073152;28;20213;-77
2022/06/24 08:05:17;;;;;;;4.13;2.33;;;25.20;70.20;;;-142.21;100.00;112049.66;5073305;28;20208;-78
2022/06/24 08:07:46;;;;;;;3.20;2.40;;;25.10;69.70;;;-142.21;100.00;112049.66;5072721;28;20205;-78
2022/06/24 08:10:14;;;;;;;4.10;2.40;;;25.10;70.90;;;-142.21;100.00;112049.66;5073431;28;20618;-75
2022/06/24 08:12:41;;;;;;;3.37;2.27;;;25.20;70.20;;;-142.21;100.00;112049.66;5072810;28;20267;-76
2022/06/24 08:15:09;;;;;;;3.00;2.10;;;25.20;69.40;;;-142.21;99.84;112049.66;5072986;28;20252;-78
2022/06/24 08:17:36;;;;;;;3.27;2.33;;;25.40;69.20;;;-142.21;100.00;112049.66;5072801;28;20231;-78
2022/06/24 08:20:04;;;;;;;4.10;2.10;;;25.50;69.20;;;-142.21;100.00;112049.66;5073103;28;20550;-79
2022/06/24 08:22:31;;;;;;;5.07;2.10;;;25.70;69.20;;;-142.21;96.83;112049.66;5073124;28;20197;-77
2022/06/24 08:25:01;;;;;;;3.53;2.20;;;25.80;67.50;;;-142.21;94.24;112049.66;5072462;28;20262;-77
2022/06/24 08:27:28;;;;;;;4.00;2.10;;;25.90;65.70;;;-142.21;96.83;112049.66;5072613;28;20209;-78
2022/06/24 08:29:55;;;;;;;4.20;2.03;;;25.90;67.00;;;-142.21;92.62;112049.66;5072195;28;20318;-77
2022/06/24 08:32:22;;;;;;;2.97;2.00;;;26.10;65.20;;;-142.21;93.52;112049.66;5072723;28;20737;-78
2022/06/24 08:34:51;;;;;;;2.40;1.90;;;26.10;65.20;;;-142.21;93.20;112049.66;5072082;28;20292;-78
2022/06/24 08:37:18;;;;;;;2.20;1.60;;;26.10;65.00;;;-142.21;95.33;112049.66;5072874;28;20261;-79
2022/06/24 08:39:45;;;;;;;4.27;2.10;;;26.20;65.30;;;-142.21;96.04;112049.66;5072414;28;20205;-77
2022/06/24 08:42:14;;;;;;;2.53;2.03;;;26.40;66.00;;;-142.21;91.96;112049.66;5072615;28;20216;-78
2022/06/24 08:44:42;;;;;;;3.90;2.17;;;26.60;64.10;;;-142.21;92.46;112049.66;5072359;28;20259;-79
2022/06/24 08:47:15;;;;;;;2.70;2.00;;;26.70;64.30;;;-142.21;86.95;112049.66;5072822;28;20666;-77
2022/06/24 08:49:43;;;;;;;3.97;1.73;;;26.80;61.00;;;-142.21;88.05;112049.66;5072453;28;20229;-77
2022/06/24 08:52:13;;;;;;;2.37;1.70;;;26.90;62.40;;;-142.21;86.45;112049.66;5072804;28;20583;-78
2022/06/24 08:54:44;;;;;;;4.60;2.30;;;26.90;61.40;;;-142.21;86.79;112049.66;5072959;28;20244;-78
2022/06/24 08:57:14;;;;;;;2.80;1.63;;;26.90;60.90;;;-142.21;84.92;112049.66;5072534;28;20213;-79
2022/06/24 08:59:42;;;;;;;2.60;2.17;;;27.00;60.10;;;-142.21;84.67;112049.66;5072272;28;20280;-77
2022/06/24 09:02:14;;;;;;;2.53;2.10;;;26.90;60.80;;;-142.21;84.85;112049.66;5072522;28;20282;-77
2022/06/24 09:04:44;;;;;;;3.07;2.10;;;26.80;59.80;;;-142.21;85.83;112049.66;5072823;28;20268;-77
2022/06/24 09:07:23;;;;;;;2.77;1.90;;;26.90;60.20;;;-142.21;86.55;112049.66;5072688;28;20208;-76
2022/06/24 09:09:59;;;;;;;3.50;2.33;;;27.00;60.00;;;-142.21;85.44;112049.66;5072295;28;20228;-77
2022/06/24 09:12:38;;;;;;;3.47;2.13;;;27.00;59.70;;;-142.21;86.66;112049.66;5072561;28;20194;-78
2022/06/24 09:15:07;;;;;;;2.07;1.87;;;27.00;59.90;;;-142.21;85.59;112049.66;5072326;28;20616;-79
2022/06/24 09:17:36;;;;;;;2.40;2.20;;;27.00;59.80;;;-142.21;87.41;112049.66;5072151;28;20278;-77
2022/06/24 09:20:13;;;;;;;1.70;1.60;;;26.90;60.30;;;-142.21;83.74;112049.66;5072031;28;20236;-77
2022/06/24 09:22:40;;;;;;;3.70;2.00;;;27.00;59.00;;;-142.21;83.04;112049.66;5072336;28;20273;-78
2022/06/24 09:25:09;;;;;;;3.20;1.70;;;26.90;59.20;;;-142.21;85.92;112049.66;5072190;28;20225;-78
2022/06/24 09:27:44;;;;;;;2.47;1.97;;;26.90;59.80;;;-142.21;82.05;112049.66;5072100;28;20201;-75
2022/06/24 09:30:13;;;;;;;2.93;1.80;;;27.10;58.40;;;-142.21;78.62;112049.66;5072000;28;20239;-76
2022/06/24 09:32:55;;;;;;;2.93;1.70;;;27.10;58.10;;;-142.21;82.78;112049.66;5072228;28;20296;-76
2022/06/24 09:35:24;;;;;;;1.73;1.53;;;27.20;58.90;;;-142.21;83.34;112049.66;5072350;28;20243;-77
2022/06/24 09:37:52;;;;;;;2.20;1.90;;;27.30;59.20;;;-142.21;79.67;112049.66;5036315;28;20224;-75
2022/06/24 09:40:24;;;;;;;3.13;2.03;;;27.50;58.50;;;-142.21;76.50;112049.66;5072152;28;20215;-75
2022/06/24 09:43:01;;;;;;;2.73;1.50;;;27.50;57.10;;;-142.21;70.49;112049.66;5068376;28;20249;-74
2022/06/24 09:45:48;;;;;;;2.50;1.60;;;27.50;55.00;;;-142.21;75.67;112049.66;5056126;28;20587;-76
2022/06/24 09:48:32;;;;;;;3.93;1.93;;;27.60;56.00;;;-142.21;75.10;112049.66;5056087;28;20226;-78
2022/06/24 09:51:01;;;;;;;2.57;1.60;;;27.60;55.70;;;-142.21;74.54;112049.66;5055570;28;20528;-79
2022/06/24 09:53:32;;;;;;;3.60;1.60;;;27.70;56.30;;;-142.21;73.48;112049.66;5055877;28;20292;-78
2022/06/24 09:56:00;;;;;;;1.60;1.50;;;27.90;56.10;;;-142.21;64.29;112049.66;5055057;28;20246;-78
2022/06/24 09:58:30;;;;;;;1.60;1.40;;;28.10;53.00;;;-142.21;65.16;112049.66;5055860;28;20314;-75
2022/06/24 10:00:56;;;;;;;2.37;1.70;;;28.10;53.80;;;-142.21;65.97;112049.66;5054956;28;20204;-77
2022/06/24 10:03:23;;;;;;;2.97;1.70;;;28.00;53.90;;;-142.21;66.95;112049.66;5055589;28;20209;-76
2022/06/24 10:05:53;;;;;;;1.50;1.40;;;28.20;54.30;;;-142.21;65.53;112049.66;5055460;28;20250;-79
2022/06/24 10:08:24;;;;;;;1.83;1.30;;;28.40;53.80;;;-142.21;58.05;112049.66;5055168;28;20576;-75
2022/06/24 10:10:54;;;;;;;3.43;1.70;;;28.50;52.30;;;-142.21;56.46;112049.66;5055118;28;20238;-76